Time;durP1;ratioP1;P1;durP2;ratioP2;P2;SDS_P1;SDS_P2;PMS_P1;PMS_P2;Temp;Humidity;BMP_temperature;BMP_pressure;BME280_temperature;BME280_humidity;BME280_pressure;Samples;Min_cycle;Max_cycle;Signal;HPM_P1;HPM_P2
2021/12/03 00:01:11;;;;;;;13.02;4.18;;;;;;;;;;6230600;28;20024;-87
2021/12/03 00:04:11;;;;;;;12.98;4.20;;;;;;;;;;6230044;28;20363;-87
2021/12/03 00:07:12;;;;;;;11.77;3.80;;;;;;;;;;6231956;28;20104;-87
2021/12/03 00:10:13;;;;;;;11.18;4.68;;;;;;;;;;6245667;28;20029;-87
2021/12/03 00:13:14;;;;;;;12.43;3.95;;;;;;;;;;6231183;28;20541;-87
2021/12/03 00:16:14;;;;;;;10.65;3.83;;;;;;;;;;6231522;28;20026;-87
2021/12/03 00:19:14;;;;;;;11.40;3.78;;;;;;;;;;6231038;28;20028;-87
2021/12/03 00:22:15;;;;;;;9.90;3.15;;;;;;;;;;6229142;28;20040;-87
2021/12/03 00:25:15;;;;;;;8.50;2.70;;;;;;;;;;6231278;28;20108;-88
2021/12/03 00:28:15;;;;;;;14.45;3.60;;;;;;;;;;6228286;28;20442;-88
2021/12/03 00:31:16;;;;;;;9.05;3.78;;;;;;;;;;6229923;28;20029;-88
2021/12/03 00:34:16;;;;;;;10.27;3.97;;;;;;;;;;6228955;28;20140;-88
2021/12/03 00:37:17;;;;;;;7.32;3.58;;;;;;;;;;6230788;28;20026;-88
2021/12/03 00:40:20;;;;;;;11.23;2.72;;;;;;;;;;6230542;28;20634;-88
2021/12/03 00:43:20;;;;;;;8.02;2.60;;;;;;;;;;6231125;28;20038;-88
2021/12/03 00:46:21;;;;;;;7.68;3.08;;;;;;;;;;6245912;28;20116;-88
2021/12/03 00:49:22;;;;;;;12.57;4.00;;;;;;;;;;6226694;28;20053;-88
2021/12/03 00:52:22;;;;;;;6.43;2.78;;;;;;;;;;6230347;28;20069;-88
2021/12/03 00:55:23;;;;;;;12.60;4.30;;;;;;;;;;6228085;28;20030;-88
2021/12/03 00:58:24;;;;;;;9.25;2.97;;;;;;;;;;6230136;28;20025;-88
2021/12/03 01:01:24;;;;;;;9.63;3.42;;;;;;;;;;6231019;28;20029;-88
2021/12/03 01:04:24;;;;;;;3.78;2.50;;;;;;;;;;6236395;28;20170;-88
2021/12/03 01:07:25;;;;;;;9.35;3.38;;;;;;;;;;6232979;28;20332;-88
2021/12/03 01:10:25;;;;;;;8.10;3.55;;;;;;;;;;6232101;28;20037;-88
2021/12/03 01:13:26;;;;;;;9.07;3.25;;;;;;;;;;6231842;28;20127;-88
2021/12/03 01:16:27;;;;;;;6.97;3.08;;;;;;;;;;6230941;28;20025;-88
2021/12/03 01:19:27;;;;;;;6.35;2.60;;;;;;;;;;6231428;28;20029;-87
2021/12/03 01:22:28;;;;;;;6.90;2.92;;;;;;;;;;6234314;28;20030;-88
2021/12/03 01:25:29;;;;;;;8.38;3.42;;;;;;;;;;6230919;28;20120;-88
2021/12/03 01:28:29;;;;;;;11.43;3.88;;;;;;;;;;6237531;28;20029;-88
2021/12/03 01:31:29;;;;;;;12.57;4.10;;;;;;;;;;6251274;28;20083;-88
2021/12/03 01:34:30;;;;;;;9.43;3.67;;;;;;;;;;6242457;28;20393;-88
2021/12/03 01:37:30;;;;;;;14.90;3.25;;;;;;;;;;6230077;28;20036;-87
2021/12/03 01:40:31;;;;;;;6.05;2.72;;;;;;;;;;6236672;28;20032;-88
2021/12/03 01:43:31;;;;;;;7.60;2.67;;;;;;;;;;6229950;28;20035;-88
2021/12/03 01:46:32;;;;;;;11.80;3.55;;;;;;;;;;6229395;28;20371;-88
2021/12/03 01:49:32;;;;;;;7.30;3.08;;;;;;;;;;6228154;28;20276;-88
2021/12/03 01:52:32;;;;;;;8.70;3.58;;;;;;;;;;6229381;28;20092;-88
2021/12/03 01:55:33;;;;;;;13.30;3.00;;;;;;;;;;6236870;28;20168;-88
2021/12/03 01:58:33;;;;;;;11.52;4.30;;;;;;;;;;6231782;28;20041;-88
2021/12/03 02:01:34;;;;;;;14.50;4.28;;;;;;;;;;6231533;28;20037;-88
2021/12/03 02:04:35;;;;;;;10.88;4.40;;;;;;;;;;6230168;28;20028;-88
2021/12/03 02:07:35;;;;;;;14.52;4.82;;;;;;;;;;6231429;28;20032;-88
2021/12/03 02:10:36;;;;;;;7.47;3.30;;;;;;;;;;6230816;28;20133;-88
2021/12/03 02:13:36;;;;;;;9.70;3.95;;;;;;;;;;6231923;28;20026;-88
2021/12/03 02:16:38;;;;;;;8.82;4.35;;;;;;;;;;6230854;28;20535;-88
2021/12/03 02:19:38;;;;;;;10.50;3.33;;;;;;;;;;6232723;28;20087;-88
2021/12/03 02:22:39;;;;;;;8.57;3.63;;;;;;;;;;6231328;28;20029;-88
2021/12/03 02:25:39;;;;;;;9.63;3.92;;;;;;;;;;6227323;28;20026;-88
2021/12/03 02:28:42;;;;;;;7.70;2.97;;;;;;;;;;6228999;28;20037;-88
2021/12/03 02:31:42;;;;;;;10.70;3.83;;;;;;;;;;6235015;28;20092;-88
2021/12/03 02:34:43;;;;;;;9.48;3.85;;;;;;;;;;6228474;28;20033;-88
2021/12/03 02:37:43;;;;;;;14.02;2.60;;;;;;;;;;6229086;28;20113;-88
2021/12/03 02:40:44;;;;;;;6.38;2.47;;;;;;;;;;6231222;28;20025;-88
2021/12/03 02:43:44;;;;;;;5.80;2.60;;;;;;;;;;6230859;28;20033;-88
2021/12/03 02:46:44;;;;;;;7.40;3.17;;;;;;;;;;6226650;28;20034;-89
2021/12/03 02:49:45;;;;;;;8.40;4.10;;;;;;;;;;6225646;28;20509;-88
2021/12/03 02:52:47;;;;;;;12.88;4.72;;;;;;;;;;6227853;28;20070;-88
2021/12/03 02:55:47;;;;;;;9.10;2.30;;;;;;;;;;6227324;28;20025;-88
2021/12/03 02:58:48;;;;;;;4.78;2.13;;;;;;;;;;6230090;28;20036;-88
2021/12/03 03:01:48;;;;;;;9.75;3.40;;;;;;;;;;6226736;28;20450;-88
2021/12/03 03:04:49;;;;;;;6.47;3.13;;;;;;;;;;6229538;28;20022;-88
2021/12/03 03:07:50;;;;;;;9.73;3.63;;;;;;;;;;6226892;28;20030;-88
2021/12/03 03:10:50;;;;;;;14.50;3.33;;;;;;;;;;6229044;28;20022;-88
2021/12/03 03:13:50;;;;;;;7.45;3.40;;;;;;;;;;6229252;28;20075;-88
2021/12/03 03:16:51;;;;;;;10.50;4.53;;;;;;;;;;6225957;28;20025;-88
2021/12/03 03:19:52;;;;;;;5.63;2.42;;;;;;;;;;6229647;28;20024;-88
2021/12/03 03:22:52;;;;;;;6.85;3.50;;;;;;;;;;6227112;28;20053;-88
2021/12/03 03:25:53;;;;;;;7.20;3.70;;;;;;;;;;6235292;28;20026;-88
2021/12/03 03:28:57;;;;;;;7.65;4.40;;;;;;;;;;6234955;28;21541;-88
2021/12/03 03:31:57;;;;;;;8.13;3.53;;;;;;;;;;6228795;28;20079;-88
2021/12/03 03:34:57;;;;;;;13.20;2.92;;;;;;;;;;6243927;28;20717;-88
2021/12/03 03:37:58;;;;;;;8.80;3.60;;;;;;;;;;6226099;28;20418;-88
2021/12/03 03:40:58;;;;;;;8.50;2.97;;;;;;;;;;6224397;28;20036;-88
2021/12/03 03:43:59;;;;;;;4.25;2.22;;;;;;;;;;6226594;28;20076;-88
2021/12/03 03:47:00;;;;;;;10.52;2.92;;;;;;;;;;6226435;28;20029;-88
2021/12/03 03:50:01;;;;;;;8.68;3.30;;;;;;;;;;6229525;28;20058;-88
2021/12/03 03:53:01;;;;;;;5.95;2.75;;;;;;;;;;6238597;28;20062;-88
2021/12/03 03:56:02;;;;;;;7.43;3.05;;;;;;;;;;6234844;28;20028;-88
2021/12/03 03:59:02;;;;;;;4.68;2.45;;;;;;;;;;6246177;28;20022;-88
2021/12/03 04:02:03;;;;;;;8.88;3.15;;;;;;;;;;6238608;28;20021;-89
2021/12/03 04:05:03;;;;;;;8.50;2.67;;;;;;;;;;6242315;28;20028;-89
2021/12/03 04:08:04;;;;;;;11.82;3.50;;;;;;;;;;6240121;28;20568;-89
2021/12/03 04:11:04;;;;;;;11.80;2.95;;;;;;;;;;6243918;28;20036;-89
2021/12/03 04:14:05;;;;;;;5.65;2.50;;;;;;;;;;6232923;28;20025;-88
2021/12/03 04:17:05;;;;;;;6.65;3.13;;;;;;;;;;6242346;28;20022;-89
2021/12/03 04:20:07;;;;;;;8.90;3.33;;;;;;;;;;6247216;28;20010;-89
2021/12/03 04:23:08;;;;;;;6.43;3.50;;;;;;;;;;6232991;28;20021;-89
2021/12/03 04:26:08;;;;;;;3.85;2.30;;;;;;;;;;6240144;28;20462;-89
2021/12/03 04:29:09;;;;;;;8.43;3.70;;;;;;;;;;6239751;28;20412;-89
2021/12/03 04:32:09;;;;;;;4.70;2.92;;;;;;;;;;6241654;28;20358;-89
2021/12/03 04:35:10;;;;;;;8.85;3.83;;;;;;;;;;6242162;28;20168;-89
2021/12/03 04:38:11;;;;;;;12.38;5.13;;;;;;;;;;6239992;28;20036;-89
2021/12/03 04:41:11;;;;;;;23.77;9.98;;;;;;;;;;6242984;28;20500;-89
2021/12/03 04:44:11;;;;;;;34.45;12.90;;;;;;;;;;6246524;28;20041;-89
2021/12/03 04:47:11;;;;;;;19.38;8.40;;;;;;;;;;6239714;28;20444;-89
2021/12/03 04:50:12;;;;;;;12.68;5.53;;;;;;;;;;6239975;28;20466;-89
2021/12/03 04:53:14;;;;;;;24.45;11.25;;;;;;;;;;6246206;28;20017;-89
2021/12/03 04:56:14;;;;;;;27.60;11.93;;;;;;;;;;6250155;28;20103;-89
2021/12/03 04:59:14;;;;;;;35.00;14.18;;;;;;;;;;6246467;28;20018;-88
2021/12/03 05:02:16;;;;;;;23.05;9.38;;;;;;;;;;6248162;28;20025;-89
2021/12/03 05:05:16;;;;;;;29.08;11.57;;;;;;;;;;6246645;28;20093;-89
2021/12/03 05:08:16;;;;;;;27.42;8.40;;;;;;;;;;6238851;28;20466;-89
2021/12/03 05:11:17;;;;;;;3.85;2.30;;;;;;;;;;6248416;28;20063;-89
2021/12/03 05:14:17;;;;;;;11.20;3.92;;;;;;;;;;6248211;28;20021;-88
2021/12/03 05:17:17;;;;;;;17.95;6.35;;;;;;;;;;6247866;28;20072;-89
2021/12/03 05:20:18;;;;;;;14.30;5.10;;;;;;;;;;6243486;28;20014;-89
2021/12/03 05:23:18;;;;;;;8.60;4.72;;;;;;;;;;6247200;28;20013;-89
2021/12/03 05:26:19;;;;;;;22.23;9.07;;;;;;;;;;6245885;28;20036;-89
2021/12/03 05:29:20;;;;;;;18.60;6.72;;;;;;;;;;6249828;28;20064;-89
2021/12/03 05:32:20;;;;;;;23.37;9.03;;;;;;;;;;6245218;28;20013;-89
2021/12/03 05:35:21;;;;;;;11.57;4.68;;;;;;;;;;6239569;28;20029;-89
2021/12/03 05:38:21;;;;;;;11.73;5.15;;;;;;;;;;6242980;28;20034;-89
2021/12/03 05:41:21;;;;;;;5.80;3.92;;;;;;;;;;6241418;28;20018;-89
2021/12/03 05:44:22;;;;;;;18.27;6.30;;;;;;;;;;6241575;28;20010;-89
2021/12/03 05:47:22;;;;;;;13.23;5.47;;;;;;;;;;6239318;28;20080;-89
2021/12/03 05:50:23;;;;;;;13.13;6.35;;;;;;;;;;6224517;28;20053;-89
2021/12/03 05:53:24;;;;;;;9.23;4.67;;;;;;;;;;6236305;28;20028;-89
2021/12/03 05:56:24;;;;;;;13.75;5.00;;;;;;;;;;6246880;28;20017;-89
2021/12/03 05:59:24;;;;;;;7.03;3.53;;;;;;;;;;6240416;28;20083;-89
2021/12/03 06:02:25;;;;;;;9.80;4.75;;;;;;;;;;6243588;28;20022;-89
2021/12/03 06:05:26;;;;;;;12.48;5.35;;;;;;;;;;6238430;28;20006;-89
2021/12/03 06:08:26;;;;;;;13.00;4.70;;;;;;;;;;6241407;28;20013;-89
2021/12/03 06:11:26;;;;;;;11.25;4.10;;;;;;;;;;6247491;28;20044;-89
2021/12/03 06:14:28;;;;;;;13.15;5.60;;;;;;;;;;6243261;28;20021;-89
2021/12/03 06:17:28;;;;;;;13.15;6.55;;;;;;;;;;6241757;28;20081;-90
2021/12/03 06:20:29;;;;;;;6.50;4.38;;;;;;;;;;6239126;28;20033;-90
2021/12/03 06:23:29;;;;;;;12.32;5.15;;;;;;;;;;6236174;28;20013;-89
2021/12/03 06:26:30;;;;;;;10.48;6.00;;;;;;;;;;6245593;28;20151;-90
2021/12/03 06:29:30;;;;;;;16.67;7.65;;;;;;;;;;6239229;28;20066;-90
2021/12/03 06:32:30;;;;;;;13.10;6.32;;;;;;;;;;6252193;28;20453;-90
2021/12/03 06:35:31;;;;;;;19.27;7.10;;;;;;;;;;6239472;28;20009;-90
2021/12/03 06:38:31;;;;;;;10.23;5.50;;;;;;;;;;6241649;28;20052;-90
2021/12/03 06:41:32;;;;;;;16.02;8.40;;;;;;;;;;6250936;28;20003;-90
2021/12/03 06:44:32;;;;;;;12.90;6.47;;;;;;;;;;6247210;28;20032;-90
2021/12/03 06:47:36;;;;;;;9.48;6.43;;;;;;;;;;6247232;28;20205;-89
2021/12/03 06:50:37;;;;;;;12.35;7.22;;;;;;;;;;6238829;28;20101;-90
2021/12/03 06:53:42;;;;;;;16.98;7.13;;;;;;;;;;6247045;28;20077;-90
2021/12/03 06:56:48;;;;;;;11.88;7.22;;;;;;;;;;6242992;28;20056;-90
2021/12/03 06:59:50;;;;;;;12.48;6.38;;;;;;;;;;6244981;28;20024;-90
2021/12/03 07:02:50;;;;;;;14.13;5.22;;;;;;;;;;6221962;28;20092;-89
2021/12/03 07:05:51;;;;;;;18.60;6.80;;;;;;;;;;6245943;28;20041;-89
2021/12/03 07:08:51;;;;;;;21.50;6.85;;;;;;;;;;6242225;28;20018;-89
2021/12/03 07:11:51;;;;;;;20.73;5.78;;;;;;;;;;6243658;28;20018;-89
2021/12/03 07:14:52;;;;;;;11.30;5.13;;;;;;;;;;6248106;28;20018;-89
2021/12/03 07:17:53;;;;;;;24.50;8.32;;;;;;;;;;6237535;28;20814;-89
2021/12/03 07:20:53;;;;;;;13.32;7.95;;;;;;;;;;6239339;28;20030;-89
2021/12/03 07:23:53;;;;;;;13.85;6.18;;;;;;;;;;6247611;28;20021;-89
2021/12/03 07:26:54;;;;;;;16.55;7.10;;;;;;;;;;6242719;28;20076;-89
2021/12/03 07:29:54;;;;;;;8.07;4.22;;;;;;;;;;6245554;28;20088;-89
2021/12/03 07:32:54;;;;;;;14.48;6.05;;;;;;;;;;6241250;28;20029;-89
2021/12/03 07:35:55;;;;;;;9.98;5.47;;;;;;;;;;6242930;28;20052;-89
2021/12/03 07:38:55;;;;;;;15.35;5.28;;;;;;;;;;6245108;28;20047;-89
2021/12/03 07:41:55;;;;;;;15.23;7.47;;;;;;;;;;6242897;28;20113;-89
2021/12/03 07:44:56;;;;;;;18.88;8.55;;;;;;;;;;6242704;28;20488;-89
2021/12/03 07:47:56;;;;;;;24.67;13.05;;;;;;;;;;6242433;28;20017;-89
2021/12/03 07:50:57;;;;;;;14.32;6.68;;;;;;;;;;6241300;28;20052;-89
2021/12/03 07:53:58;;;;;;;19.73;9.77;;;;;;;;;;6246626;28;20374;-89
2021/12/03 07:56:58;;;;;;;24.65;7.70;;;;;;;;;;6247520;28;20024;-89
2021/12/03 07:59:59;;;;;;;25.58;10.93;;;;;;;;;;6250530;28;20014;-89
2021/12/03 08:02:59;;;;;;;23.60;8.68;;;;;;;;;;6248392;28;20133;-89
2021/12/03 08:06:05;;;;;;;9.93;4.93;;;;;;;;;;6248594;28;20373;-89
2021/12/03 08:09:09;;;;;;;18.55;7.70;;;;;;;;;;6245461;28;20017;-89
2021/12/03 08:12:09;;;;;;;12.38;6.10;;;;;;;;;;6247237;28;20490;-89
2021/12/03 08:15:10;;;;;;;18.55;9.07;;;;;;;;;;6246186;28;20026;-89
2021/12/03 08:18:10;;;;;;;22.25;10.63;;;;;;;;;;6248552;28;20017;-89
2021/12/03 08:21:10;;;;;;;36.03;14.68;;;;;;;;;;6245624;28;20013;-89
2021/12/03 08:24:11;;;;;;;29.08;10.02;;;;;;;;;;6256539;28;20073;-89
2021/12/03 08:27:11;;;;;;;10.05;5.63;;;;;;;;;;6248051;28;20076;-89
2021/12/03 08:30:13;;;;;;;20.08;7.93;;;;;;;;;;6245746;28;20017;-89
2021/12/03 08:33:13;;;;;;;17.67;7.65;;;;;;;;;;6247401;28;20022;-89
2021/12/03 08:36:14;;;;;;;17.17;8.25;;;;;;;;;;6247947;28;20091;-89
2021/12/03 08:39:14;;;;;;;24.23;9.50;;;;;;;;;;6248573;28;20021;-89
2021/12/03 08:42:16;;;;;;;21.02;10.32;;;;;;;;;;6248689;28;20017;-89
2021/12/03 08:45:17;;;;;;;21.88;9.60;;;;;;;;;;6249168;28;20021;-89
2021/12/03 08:48:18;;;;;;;21.55;13.35;;;;;;;;;;6244940;28;20017;-89
2021/12/03 08:51:34;;;;;;;21.65;9.32;;;;;;;;;;6246013;28;20072;-89
2021/12/03 08:58:10;;;;;;;10.98;6.20;;;;;;;;;;6230475;28;20025;-89
2021/12/03 09:01:12;;;;;;;19.30;6.90;;;;;;;;;;6246948;28;20047;-90
2021/12/03 09:04:14;;;;;;;31.00;14.73;;;;;;;;;;6241907;28;20419;-89
2021/12/03 09:07:15;;;;;;;39.67;15.88;;;;;;;;;;6246095;28;20068;-89
2021/12/03 09:10:15;;;;;;;14.25;6.95;;;;;;;;;;6233601;28;20009;-89
2021/12/03 09:13:16;;;;;;;15.45;7.32;;;;;;;;;;6246098;28;20057;-89
2021/12/03 09:16:19;;;;;;;15.30;6.22;;;;;;;;;;6244346;28;20009;-89
2021/12/03 09:19:25;;;;;;;30.35;11.18;;;;;;;;;;6247910;28;20535;-89
2021/12/03 09:25:33;;;;;;;14.52;4.53;;;;;;;;;;6241813;28;20017;-89
2021/12/03 09:28:34;;;;;;;8.88;3.70;;;;;;;;;;6247951;28;20094;-89
2021/12/03 09:31:36;;;;;;;11.13;4.43;;;;;;;;;;6246132;28;20022;-89
2021/12/03 09:34:37;;;;;;;48.78;18.50;;;;;;;;;;6245705;28;20063;-89
2021/12/03 09:37:37;;;;;;;33.13;14.07;;;;;;;;;;6241131;28;20021;-89
2021/12/03 09:40:38;;;;;;;13.27;5.25;;;;;;;;;;6240191;28;20010;-89
2021/12/03 09:43:42;;;;;;;14.13;5.47;;;;;;;;;;6246826;28;20017;-88
2021/12/03 09:46:43;;;;;;;7.72;3.67;;;;;;;;;;6236407;28;20021;-88
2021/12/03 09:49:44;;;;;;;14.20;6.00;;;;;;;;;;6232901;28;20048;-89
2021/12/03 09:55:57;;;;;;;8.50;5.05;;;;;;;;;;6241756;28;20039;-88
2021/12/03 10:15:32;;;;;;;11.23;3.47;;;;;;;;;;6232896;28;20486;-88
2021/12/03 10:18:35;;;;;;;8.27;4.72;;;;;;;;;;6233376;28;20021;-88
2021/12/03 10:32:09;;;;;;;6.78;2.83;;;;;;;;;;6233185;28;20059;-88
2021/12/03 10:38:34;;;;;;;12.85;5.00;;;;;;;;;;6230886;28;20037;-87
2021/12/03 10:41:52;;;;;;;8.73;3.90;;;;;;;;;;6239464;28;20466;-88
2021/12/03 10:51:18;;;;;;;5.10;2.58;;;;;;;;;;6230127;28;20057;-88
2021/12/03 10:58:21;;;;;;;9.13;3.95;;;;;;;;;;6231577;28;20104;-88
2021/12/03 11:37:57;;;;;;;12.77;4.40;;;;;;;;;;6246652;28;20029;-88
2021/12/03 11:44:44;;;;;;;5.80;3.28;;;;;;;;;;6246013;28;20017;-88
2021/12/03 12:14:41;;;;;;;10.52;3.60;;;;;;;;;;6238757;28;20024;-88
2021/12/03 12:17:27;;;;;;;9.98;3.63;;;;;;;;;;6237084;28;20049;-88
2021/12/03 12:34:14;;;;;;;8.25;3.80;;;;;;;;;;6240905;28;20066;-88
2021/12/03 12:40:53;;;;;;;10.35;3.45;;;;;;;;;;6242084;28;20441;-88
2021/12/03 13:35:53;;;;;;;16.25;5.13;;;;;;;;;;6234282;28;20036;-88
2021/12/03 14:37:45;;;;;;;;;;;;;;;;;;6222382;28;20037;-88
2021/12/03 14:43:44;;;;;;;42.60;16.08;;;;;;;;;;6245983;28;20473;-88
2021/12/03 14:53:23;;;;;;;126.65;48.05;;;;;;;;;;6241740;28;20033;-89
2021/12/03 14:56:25;;;;;;;126.00;46.58;;;;;;;;;;6240036;28;20327;-89
2021/12/03 14:59:29;;;;;;;124.18;44.65;;;;;;;;;;6240993;28;20473;-89
2021/12/03 15:09:29;;;;;;;60.47;22.30;;;;;;;;;;6238477;28;20028;-89
2021/12/03 15:25:00;;;;;;;140.10;59.85;;;;;;;;;;6232038;28;20032;-89
2021/12/03 15:28:15;;;;;;;156.70;59.43;;;;;;;;;;6235191;28;20492;-90
2021/12/03 16:04:25;;;;;;;53.72;20.45;;;;;;;;;;6239753;28;20025;-91
2021/12/03 16:17:16;;;;;;;58.30;21.17;;;;;;;;;;6241014;28;20088;-90
2021/12/03 16:47:11;;;;;;;57.67;23.40;;;;;;;;;;6233383;28;20466;-89
2021/12/03 16:50:42;;;;;;;48.15;18.67;;;;;;;;;;6227426;28;20050;-88
2021/12/03 16:53:35;;;;;;;66.15;29.73;;;;;;;;;;6228275;28;20061;-88
2021/12/03 16:56:36;;;;;;;52.58;20.63;;;;;;;;;;6229980;28;20030;-89
2021/12/03 16:59:39;;;;;;;30.20;15.50;;;;;;;;;;6227703;28;20398;-88
2021/12/03 17:03:03;;;;;;;56.53;19.83;;;;;;;;;;6231472;28;20026;-88
2021/12/03 17:45:22;;;;;;;37.17;14.85;;;;;;;;;;6233330;28;20014;-87
2021/12/03 17:51:49;;;;;;;43.45;16.95;;;;;;;;;;6226294;28;20057;-87
2021/12/03 17:58:23;;;;;;;64.00;26.55;;;;;;;;;;6224166;28;20424;-87
2021/12/03 18:01:35;;;;;;;89.38;37.67;;;;;;;;;;6225664;28;20050;-87
2021/12/03 18:04:42;;;;;;;67.00;29.27;;;;;;;;;;6227911;28;20029;-87
2021/12/03 18:52:46;;;;;;;27.30;11.30;;;;;;;;;;6235578;28;20172;-88
2021/12/03 18:55:51;;;;;;;36.30;16.02;;;;;;;;;;6225425;28;20014;-87
2021/12/03 18:58:55;;;;;;;28.25;12.00;;;;;;;;;;6237367;28;20258;-87
2021/12/03 19:01:56;;;;;;;33.80;13.02;;;;;;;;;;6230659;28;20064;-87
2021/12/03 19:05:04;;;;;;;33.45;17.15;;;;;;;;;;6241167;28;20013;-86
2021/12/03 19:08:15;;;;;;;38.75;14.75;;;;;;;;;;6228663;28;20362;-86
2021/12/03 19:11:22;;;;;;;53.78;20.90;;;;;;;;;;6229832;28;20021;-87
2021/12/03 19:14:23;;;;;;;46.58;17.30;;;;;;;;;;6243941;28;20018;-86
2021/12/03 19:17:25;;;;;;;59.50;24.02;;;;;;;;;;6245477;28;20024;-86
2021/12/03 19:20:28;;;;;;;54.00;23.38;;;;;;;;;;6230835;28;20025;-86
2021/12/03 19:23:28;;;;;;;53.22;19.95;;;;;;;;;;6240310;28;20018;-86
2021/12/03 19:26:30;;;;;;;52.55;20.27;;;;;;;;;;6233677;28;20056;-86
2021/12/03 19:29:31;;;;;;;43.72;17.85;;;;;;;;;;6224370;28;20030;-86
2021/12/03 19:32:32;;;;;;;43.90;18.75;;;;;;;;;;6240642;28;20025;-85
2021/12/03 19:35:32;;;;;;;33.70;16.20;;;;;;;;;;6229283;28;20022;-85
2021/12/03 19:38:36;;;;;;;45.08;19.75;;;;;;;;;;6228306;28;20100;-85
2021/12/03 19:41:44;;;;;;;47.30;20.27;;;;;;;;;;6234026;28;20005;-84
2021/12/03 19:44:56;;;;;;;55.80;21.90;;;;;;;;;;6238018;28;20225;-84
2021/12/03 19:48:03;;;;;;;54.00;20.73;;;;;;;;;;6241631;28;20028;-84
2021/12/03 19:51:12;;;;;;;56.55;21.20;;;;;;;;;;6235472;28;20038;-84
2021/12/03 19:54:13;;;;;;;50.00;21.13;;;;;;;;;;6245749;28;20025;-84
2021/12/03 19:57:13;;;;;;;49.47;23.85;;;;;;;;;;6231304;28;20025;-85
2021/12/03 20:00:13;;;;;;;47.10;18.98;;;;;;;;;;6232508;28;20096;-85
2021/12/03 20:03:14;;;;;;;29.60;14.50;;;;;;;;;;6241753;28;20464;-85
2021/12/03 20:06:14;;;;;;;33.00;17.65;;;;;;;;;;6234755;28;20033;-85
2021/12/03 20:09:20;;;;;;;47.35;19.58;;;;;;;;;;6235245;28;20055;-85
2021/12/03 20:12:22;;;;;;;36.13;14.45;;;;;;;;;;6237751;28;20060;-85
2021/12/03 20:15:32;;;;;;;47.33;19.63;;;;;;;;;;6234017;28;20089;-85
2021/12/03 20:21:34;;;;;;;23.92;8.70;;;;;;;;;;6242941;28;20370;-85
2021/12/03 20:27:48;;;;;;;27.60;12.57;;;;;;;;;;6239114;28;20021;-85
2021/12/03 20:30:50;;;;;;;41.75;16.58;;;;;;;;;;6244061;28;20017;-85
2021/12/03 20:34:07;;;;;;;30.75;13.82;;;;;;;;;;6231818;28;20478;-85
2021/12/03 20:40:32;;;;;;;21.80;9.10;;;;;;;;;;6236326;28;20355;-85
2021/12/03 20:44:21;;;;;;;28.85;13.15;;;;;;;;;;6240270;28;20017;-85
2021/12/03 20:53:35;;;;;;;62.42;23.38;;;;;;;;;;6244382;28;20490;-85
2021/12/03 21:10:04;;;;;;;39.38;15.65;;;;;;;;;;6233049;28;20490;-85
2021/12/03 21:13:10;;;;;;;42.58;20.45;;;;;;;;;;6230322;28;20087;-84
2021/12/03 21:22:23;;;;;;;28.02;13.00;;;;;;;;;;6237160;28;20029;-83
2021/12/03 21:25:27;;;;;;;36.78;16.55;;;;;;;;;;6234451;28;20393;-83
2021/12/03 21:41:24;;;;;;;25.52;10.38;;;;;;;;;;6231110;28;20120;-83
2021/12/03 21:44:25;;;;;;;20.38;10.38;;;;;;;;;;6236461;28;20249;-83
2021/12/03 21:47:25;;;;;;;25.53;10.17;;;;;;;;;;6237948;28;20381;-83
2021/12/03 21:50:26;;;;;;;20.23;8.50;;;;;;;;;;6249268;28;20479;-83
2021/12/03 21:53:29;;;;;;;31.45;11.20;;;;;;;;;;6239706;28;20086;-83
2021/12/03 21:56:30;;;;;;;19.02;10.38;;;;;;;;;;6234910;28;20021;-83
2021/12/03 21:59:31;;;;;;;16.40;7.18;;;;;;;;;;6243221;28;20222;-83
2021/12/03 22:02:32;;;;;;;20.98;7.53;;;;;;;;;;6238170;28;20025;-83
2021/12/03 22:05:32;;;;;;;19.15;8.73;;;;;;;;;;6236121;28;20482;-83
2021/12/03 22:08:32;;;;;;;15.25;6.97;;;;;;;;;;6232494;28;20097;-84
2021/12/03 22:11:33;;;;;;;20.25;6.43;;;;;;;;;;6234169;28;20022;-83
2021/12/03 22:14:33;;;;;;;17.52;7.72;;;;;;;;;;6252503;28;20028;-83
2021/12/03 22:17:34;;;;;;;16.92;6.10;;;;;;;;;;6235259;28;20020;-83
2021/12/03 22:20:35;;;;;;;21.17;11.05;;;;;;;;;;6242127;28;20029;-83
2021/12/03 22:23:37;;;;;;;15.00;7.50;;;;;;;;;;6242545;28;20024;-83
2021/12/03 22:26:37;;;;;;;17.13;8.02;;;;;;;;;;6235157;28;20461;-83
2021/12/03 22:29:38;;;;;;;8.30;3.83;;;;;;;;;;6238071;28;20028;-83
2021/12/03 22:32:38;;;;;;;8.40;4.20;;;;;;;;;;6242612;28;20024;-83
2021/12/03 22:35:39;;;;;;;14.75;5.65;;;;;;;;;;6235926;28;20088;-83
2021/12/03 22:38:40;;;;;;;5.60;3.75;;;;;;;;;;6241313;28;20014;-83
2021/12/03 22:41:42;;;;;;;25.85;8.07;;;;;;;;;;6233335;28;20017;-83
2021/12/03 22:44:43;;;;;;;12.40;7.18;;;;;;;;;;6248384;28;20105;-83
2021/12/03 22:47:54;;;;;;;14.43;6.75;;;;;;;;;;6239927;28;20035;-83
2021/12/03 22:54:15;;;;;;;15.25;7.65;;;;;;;;;;6239579;28;20044;-83
2021/12/03 22:57:17;;;;;;;17.23;6.43;;;;;;;;;;6234644;28;20021;-83
2021/12/03 23:00:36;;;;;;;23.08;10.18;;;;;;;;;;6235936;28;20436;-83
2021/12/03 23:03:37;;;;;;;28.30;7.43;;;;;;;;;;6252015;28;20045;-83
2021/12/03 23:06:40;;;;;;;26.20;11.27;;;;;;;;;;6230564;28;20398;-83
2021/12/03 23:09:41;;;;;;;21.95;8.15;;;;;;;;;;6238725;28;20449;-83
2021/12/03 23:12:41;;;;;;;16.95;7.85;;;;;;;;;;6237455;28;20025;-83
2021/12/03 23:15:42;;;;;;;22.50;9.88;;;;;;;;;;6239386;28;20131;-83
2021/12/03 23:18:42;;;;;;;19.75;9.55;;;;;;;;;;6235470;28;20432;-83
2021/12/03 23:21:42;;;;;;;15.00;6.35;;;;;;;;;;6250363;28;20014;-83
2021/12/03 23:24:43;;;;;;;21.05;7.40;;;;;;;;;;6247210;28;20006;-83
2021/12/03 23:27:44;;;;;;;17.90;8.02;;;;;;;;;;6246573;28;20020;-83
2021/12/03 23:30:44;;;;;;;23.63;8.70;;;;;;;;;;6239208;28;20071;-82
2021/12/03 23:33:44;;;;;;;21.35;8.35;;;;;;;;;;6247400;28;20072;-83
2021/12/03 23:36:46;;;;;;;29.40;9.50;;;;;;;;;;6242616;28;20439;-83
2021/12/03 23:39:46;;;;;;;;;;;;;;;;;;6261024;28;20029;-83
2021/12/03 23:42:47;;;;;;;26.08;10.27;;;;;;;;;;6246459;28;19905;-83
2021/12/03 23:45:47;;;;;;;23.63;11.20;;;;;;;;;;6243270;28;20072;-83
2021/12/03 23:48:48;;;;;;;30.38;13.02;;;;;;;;;;6244609;28;20024;-83
2021/12/03 23:51:54;;;;;;;29.15;12.73;;;;;;;;;;6243323;28;20032;-83
2021/12/03 23:54:58;;;;;;;21.55;10.55;;;;;;;;;;6246023;28;20425;-83
2021/12/03 23:58:00;;;;;;;33.90;10.82;;;;;;;;;;6247657;28;20080;-83
